Time;durP1;ratioP1;P1;durP2;ratioP2;P2;SDS_P1;SDS_P2;PMS_P1;PMS_P2;Temp;Humidity;BMP_temperature;BMP_pressure;BME280_temperature;BME280_humidity;BME280_pressure;Samples;Min_cycle;Max_cycle;Signal;HPM_P1;HPM_P2
2024/03/06 00:00:42;;;;;;;35.20;22.60;;;;;;;5.61;86.20;101868.11;104967;1256;138962;-62
2024/03/06 00:03:28;;;;;;;33.00;21.80;;;;;;;5.63;86.23;101867.23;104921;1254;74906;-62
2024/03/06 00:05:55;;;;;;;31.50;23.10;;;;;;;5.61;86.20;101869.72;105093;1258;67424;-62
2024/03/06 00:08:22;;;;;;;30.80;20.30;;;;;;;5.63;86.17;101871.58;104914;1260;138364;-62
2024/03/06 00:10:49;;;;;;;32.90;21.40;;;;;;;5.67;86.26;101872.82;105071;1257;61234;-63
2024/03/06 00:13:16;;;;;;;31.70;21.10;;;;;;;5.70;86.24;101876.35;104832;1254;139329;-62
2024/03/06 00:15:42;;;;;;;32.10;20.90;;;;;;;5.75;86.22;101881.20;104913;1254;75749;-63
2024/03/06 00:18:10;;;;;;;31.90;21.20;;;;;;;5.78;86.20;101882.27;104812;1254;139516;-62
2024/03/06 00:20:37;;;;;;;31.90;21.00;;;;;;;5.80;86.05;101886.20;105031;1255;73207;-63
2024/03/06 00:23:04;;;;;;;36.30;21.10;;;;;;;5.82;85.89;101888.39;105018;1257;61206;-64
2024/03/06 00:25:30;;;;;;;33.10;21.30;;;;;;;5.81;85.75;101886.44;104835;1254;139073;-63
2024/03/06 00:27:57;;;;;;;32.30;21.40;;;;;;;5.80;85.63;101890.38;105069;1254;76927;-67
2024/03/06 00:30:24;;;;;;;30.70;19.90;;;;;;;5.79;85.69;101889.08;104923;1255;138675;-67
2024/03/06 00:32:51;;;;;;;32.40;21.30;;;;;;;5.77;85.60;101894.55;105118;1258;70604;-67
2024/03/06 00:35:19;;;;;;;28.00;19.30;;;;;;;5.78;85.65;101895.98;105107;1260;61338;-67
2024/03/06 00:37:46;;;;;;;30.00;19.70;;;;;;;5.78;85.56;101897.57;105295;1254;139172;-67
2024/03/06 00:40:13;;;;;;;29.70;20.40;;;;;;;5.75;85.47;101899.48;104993;1255;75839;-68
2024/03/06 00:42:41;;;;;;;31.40;19.80;;;;;;;5.73;85.40;101906.66;104934;1257;138871;-67
2024/03/06 00:45:08;;;;;;;29.40;19.80;;;;;;;5.73;85.45;101905.58;106691;1257;71858;-68
2024/03/06 00:47:35;;;;;;;27.70;19.10;;;;;;;5.75;85.46;101905.05;104865;1254;61519;-68
2024/03/06 00:50:02;;;;;;;31.60;20.50;;;;;;;5.76;85.37;101903.73;104989;1257;138536;-66
2024/03/06 00:52:28;;;;;;;29.80;18.40;;;;;;;5.78;85.36;101904.02;104978;1254;75543;-67
2024/03/06 00:54:56;;;;;;;30.00;19.90;;;;;;;5.80;85.31;101907.30;104991;1258;138582;-67
2024/03/06 00:57:22;;;;;;;27.70;19.60;;;;;;;5.84;85.31;101913.24;105065;1254;73322;-67
2024/03/06 00:59:49;;;;;;;28.20;18.80;;;;;;;5.85;85.26;101910.04;105047;1258;61337;-67
2024/03/06 01:02:16;;;;;;;27.30;18.40;;;;;;;5.85;85.07;101911.58;104983;1257;139592;-67
2024/03/06 01:04:42;;;;;;;33.90;19.30;;;;;;;5.82;84.88;101912.98;105091;1260;73442;-68
2024/03/06 01:07:09;;;;;;;34.30;19.70;;;;;;;5.80;84.93;101916.35;104883;1256;138858;-67
2024/03/06 01:09:36;;;;;;;29.60;19.20;;;;;;;5.79;84.99;101917.14;105054;1258;72408;-67
2024/03/06 01:12:03;;;;;;;26.10;17.90;;;;;;;5.80;84.95;101921.39;105161;1254;61370;-67
2024/03/06 01:14:30;;;;;;;26.60;18.50;;;;;;;5.83;84.99;101920.69;105049;1254;61273;-66
2024/03/06 01:16:57;;;;;;;33.00;19.60;;;;;;;5.86;85.10;101920.20;105278;1254;75888;-66
2024/03/06 01:19:24;;;;;;;32.10;19.20;;;;;;;5.88;85.04;101920.50;104782;1260;138671;-66
2024/03/06 01:21:51;;;;;;;24.90;18.10;;;;;;;5.91;84.94;101920.83;104938;1254;73827;-67
2024/03/06 01:24:17;;;;;;;28.20;19.10;;;;;;;5.92;84.91;101921.95;104914;1255;139753;-66
2024/03/06 01:26:44;;;;;;;32.30;19.80;;;;;;;5.94;84.82;101926.08;105015;1257;61818;-66
2024/03/06 01:29:11;;;;;;;25.90;17.50;;;;;;;5.97;84.80;101924.24;105049;1254;74896;-67
2024/03/06 01:31:37;;;;;;;27.60;18.40;;;;;;;6.00;84.73;101926.30;104861;1257;139151;-67
2024/03/06 01:34:04;;;;;;;28.70;16.80;;;;;;;5.99;84.48;101922.42;104861;1259;71866;-67
2024/03/06 01:36:33;;;;;;;26.30;18.10;;;;;;;6.00;84.45;101922.29;104646;1254;139834;-68
2024/03/06 01:38:59;;;;;;;25.20;17.10;;;;;;;6.01;84.40;101926.06;104896;1260;61277;-68
2024/03/06 01:41:26;;;;;;;26.90;16.70;;;;;;;6.02;84.44;101928.39;104953;1258;75560;-68
2024/03/06 01:43:53;;;;;;;26.80;17.00;;;;;;;6.03;84.33;101928.80;104859;1254;138497;-67
2024/03/06 01:46:19;;;;;;;28.40;18.10;;;;;;;6.02;84.30;101928.73;104935;1257;73029;-67
2024/03/06 01:48:46;;;;;;;26.50;18.20;;;;;;;6.01;84.20;101931.46;104858;1256;138584;-67
2024/03/06 01:51:13;;;;;;;30.20;18.80;;;;;;;6.01;84.28;101928.51;104912;1260;61392;-67
2024/03/06 01:53:39;;;;;;;30.00;19.10;;;;;;;5.99;84.15;101930.98;105082;1254;73395;-67
2024/03/06 01:56:06;;;;;;;30.60;19.60;;;;;;;5.97;84.16;101933.08;104839;1258;138375;-67
2024/03/06 01:58:33;;;;;;;29.90;18.80;;;;;;;5.96;84.24;101934.77;105362;1257;72699;-68
2024/03/06 02:01:00;;;;;;;26.80;18.00;;;;;;;5.96;84.22;101936.20;104895;1257;138577;-68
2024/03/06 02:03:27;;;;;;;28.10;16.80;;;;;;;5.98;84.23;101941.55;104881;1258;61306;-68
2024/03/06 02:05:54;;;;;;;26.30;17.40;;;;;;;6.00;84.17;101942.50;104821;1260;73852;-69
2024/03/06 02:08:21;;;;;;;28.10;17.20;;;;;;;5.98;84.12;101942.07;104661;1260;138851;-69
2024/03/06 02:10:47;;;;;;;28.80;15.50;;;;;;;5.97;84.12;101946.73;105124;1254;73253;-69
2024/03/06 02:13:14;;;;;;;35.10;18.70;;;;;;;5.96;84.05;101947.36;104759;1254;138514;-69
2024/03/06 02:15:42;;;;;;;25.20;17.50;;;;;;;5.94;84.06;101948.55;104989;1258;61333;-69
2024/03/06 02:18:09;;;;;;;23.10;16.70;;;;;;;5.94;84.07;101951.00;105029;1254;140248;-68
2024/03/06 02:20:38;;;;;;;27.90;17.00;;;;;;;5.94;84.04;101952.73;105069;1257;67348;-68
2024/03/06 02:23:05;;;;;;;23.40;15.90;;;;;;;5.96;84.12;101953.77;104891;1259;72352;-68
2024/03/06 02:25:32;;;;;;;23.90;15.30;;;;;;;5.95;84.08;101952.80;105001;1257;138646;-68
2024/03/06 02:27:58;;;;;;;25.10;15.60;;;;;;;5.94;84.05;101958.50;105080;1260;61356;-68
2024/03/06 02:30:25;;;;;;;22.60;15.40;;;;;;;5.91;84.01;101957.96;104942;1257;139260;-67
2024/03/06 02:32:52;;;;;;;24.30;14.90;;;;;;;5.89;83.99;101957.66;105101;1254;66884;-68
2024/03/06 02:35:19;;;;;;;26.00;15.50;;;;;;;5.87;84.06;101959.28;104992;1256;73263;-67
2024/03/06 02:37:46;;;;;;;25.50;15.10;;;;;;;5.83;84.00;101964.98;104798;1256;139364;-67
2024/03/06 02:40:13;;;;;;;23.50;14.90;;;;;;;5.81;83.95;101963.95;105037;1258;61304;-67
2024/03/06 02:42:39;;;;;;;29.30;15.70;;;;;;;5.78;83.99;101961.49;105032;1254;138683;-67
2024/03/06 02:45:09;;;;;;;24.40;15.00;;;;;;;5.76;83.99;101960.16;105115;1257;66715;-67
2024/03/06 02:47:36;;;;;;;24.90;14.50;;;;;;;5.75;83.98;101960.05;105045;1258;73172;-68
2024/03/06 02:50:03;;;;;;;21.50;14.40;;;;;;;5.74;84.06;101961.05;104860;1260;138667;-68
2024/03/06 02:52:29;;;;;;;23.90;15.00;;;;;;;5.74;84.05;101963.64;105806;1253;61622;-67
2024/03/06 02:54:56;;;;;;;23.30;15.30;;;;;;;5.75;84.11;101961.31;104901;1254;138640;-67
2024/03/06 02:57:23;;;;;;;23.90;14.20;;;;;;;5.74;83.98;101958.25;104893;1260;66630;-68
2024/03/06 02:59:50;;;;;;;21.30;13.50;;;;;;;5.75;84.03;101960.41;105238;1259;71529;-68
2024/03/06 03:02:16;;;;;;;24.20;13.60;;;;;;;5.76;84.00;101962.06;104976;1256;139500;-68
2024/03/06 03:04:43;;;;;;;30.50;14.90;;;;;;;5.79;84.11;101959.96;105188;1254;61302;-67
2024/03/06 03:07:10;;;;;;;27.50;15.10;;;;;;;5.80;83.97;101964.08;105303;1257;138508;-67
2024/03/06 03:09:38;;;;;;;21.60;14.80;;;;;;;5.82;84.00;101960.73;105054;1257;67133;-67
2024/03/06 03:12:05;;;;;;;21.40;14.10;;;;;;;5.84;83.96;101963.26;105100;1257;71284;-67
2024/03/06 03:14:32;;;;;;;20.90;14.70;;;;;;;5.83;83.85;101971.77;105048;1258;61345;-67
2024/03/06 03:17:00;;;;;;;24.50;15.20;;;;;;;5.83;83.84;101969.64;105481;1257;61267;-66
2024/03/06 03:19:27;;;;;;;23.70;13.70;;;;;;;5.84;83.82;101973.04;105177;1254;138646;-66
2024/03/06 03:21:54;;;;;;;22.20;13.50;;;;;;;5.86;83.89;101981.16;105066;1254;66658;-66
2024/03/06 03:24:21;;;;;;;22.40;14.70;;;;;;;5.88;83.82;101983.02;104938;1254;139324;-66
2024/03/06 03:26:48;;;;;;;25.90;14.70;;;;;;;5.89;83.69;101983.40;105110;1254;61256;-68
2024/03/06 03:29:14;;;;;;;24.80;14.40;;;;;;;5.89;83.68;101985.02;105030;1258;61522;-68
2024/03/06 03:31:42;;;;;;;25.50;15.40;;;;;;;5.89;83.63;101984.80;104876;1254;138038;-69
2024/03/06 03:34:09;;;;;;;25.50;14.60;;;;;;;5.85;83.56;101982.34;107045;1254;65083;-68
2024/03/06 03:36:43;;;;;;;22.40;14.90;;;;;;;5.83;83.46;101988.11;104964;1254;137955;-68
2024/03/06 03:39:16;;;;;;;27.50;15.30;;;;;;;5.83;83.60;101986.38;105104;1256;61288;-68
2024/03/06 03:41:45;;;;;;;21.90;14.60;;;;;;;5.80;83.48;101983.94;107948;1253;61244;-68
2024/03/06 03:44:15;;;;;;;26.70;15.20;;;;;;;5.79;83.52;101985.59;104997;1256;138315;-68
2024/03/06 03:46:42;;;;;;;23.60;14.80;;;;;;;5.78;83.45;101984.12;105027;1257;66480;-68
2024/03/06 03:49:09;;;;;;;25.30;14.70;;;;;;;5.77;83.42;101990.84;105046;1256;138503;-68
2024/03/06 03:51:36;;;;;;;26.00;15.00;;;;;;;5.76;83.36;101992.00;105037;1254;61166;-69
2024/03/06 03:54:04;;;;;;;22.30;15.80;;;;;;;5.72;83.26;101998.02;105124;1254;61460;-68
2024/03/06 03:56:31;;;;;;;22.30;15.40;;;;;;;5.67;83.19;102008.17;104870;1254;138483;-68
2024/03/06 03:58:58;;;;;;;22.00;15.30;;;;;;;5.62;83.21;102007.49;106701;1254;67248;-68
2024/03/06 04:01:25;;;;;;;19.40;14.10;;;;;;;5.59;83.18;102012.18;104985;1258;138817;-68
2024/03/06 04:03:52;;;;;;;28.30;14.70;;;;;;;5.58;83.28;102018.55;105678;1254;61366;-68
2024/03/06 04:06:19;;;;;;;26.00;15.70;;;;;;;5.55;83.07;102025.86;104839;1254;138902;-68
2024/03/06 04:08:48;;;;;;;21.50;15.00;;;;;;;5.48;83.03;102031.80;105155;1256;73892;-66
2024/03/06 04:11:15;;;;;;;23.10;14.70;;;;;;;5.41;82.93;102031.70;105079;1255;66195;-64
2024/03/06 04:13:42;;;;;;;22.00;14.80;;;;;;;5.35;83.16;102033.77;104982;1256;138607;-62
2024/03/06 04:16:09;;;;;;;23.60;15.40;;;;;;;5.32;83.25;102032.10;104965;1257;62699;-63
2024/03/06 04:18:35;;;;;;;22.40;15.70;;;;;;;5.30;83.44;102036.04;104840;1255;138657;-62
2024/03/06 04:21:04;;;;;;;27.90;16.90;;;;;;;5.27;83.36;102033.04;104863;1258;73243;-62
2024/03/06 04:23:31;;;;;;;26.30;14.60;;;;;;;5.25;83.40;102035.50;104995;1254;67317;-62
2024/03/06 04:26:01;;;;;;;23.10;15.10;;;;;;;5.24;83.53;102036.13;104889;1254;139195;-62
2024/03/06 04:28:28;;;;;;;24.80;15.90;;;;;;;5.24;83.56;102038.21;105069;1257;61404;-62
2024/03/06 04:30:55;;;;;;;26.60;15.50;;;;;;;5.22;83.38;102037.39;104937;1258;138556;-63
2024/03/06 04:33:22;;;;;;;21.10;14.90;;;;;;;5.17;83.28;102038.95;104995;1254;75969;-63
2024/03/06 04:35:49;;;;;;;19.40;13.70;;;;;;;5.12;83.31;102039.02;106711;1257;66711;-63
2024/03/06 04:38:16;;;;;;;22.40;15.20;;;;;;;5.10;83.29;102038.35;104844;1253;138485;-62
2024/03/06 04:40:43;;;;;;;22.70;14.60;;;;;;;5.09;83.32;102038.61;109098;1254;59883;-62
2024/03/06 04:43:09;;;;;;;22.10;15.10;;;;;;;5.08;83.20;102044.66;108819;1254;138710;-63
2024/03/06 04:45:36;;;;;;;22.20;15.00;;;;;;;5.06;83.23;102047.79;108860;1255;74568;-63
2024/03/06 04:48:03;;;;;;;20.90;14.30;;;;;;;5.04;83.13;102049.75;106136;1254;64918;-62
2024/03/06 04:50:30;;;;;;;19.20;13.10;;;;;;;5.05;83.17;102050.87;106215;1254;138767;-62
2024/03/06 04:52:56;;;;;;;20.90;15.70;;;;;;;5.02;82.84;102049.28;104804;1254;61489;-63
2024/03/06 04:55:24;;;;;;;27.30;15.20;;;;;;;5.00;82.91;102048.65;104834;1257;138592;-62
2024/03/06 04:57:52;;;;;;;18.40;13.80;;;;;;;5.00;82.99;102051.02;104962;1257;74671;-63
2024/03/06 05:00:19;;;;;;;29.10;15.00;;;;;;;5.00;82.95;102057.48;104942;1254;139349;-62
2024/03/06 05:02:46;;;;;;;21.80;14.60;;;;;;;4.98;82.79;102059.45;104840;1254;72655;-62
2024/03/06 05:05:12;;;;;;;23.10;14.80;;;;;;;4.97;82.74;102060.23;104943;1257;61238;-62
2024/03/06 05:07:39;;;;;;;23.10;14.90;;;;;;;4.95;82.63;102062.20;104824;1254;138547;-64
2024/03/06 05:10:09;;;;;;;23.50;14.70;;;;;;;4.96;82.74;102063.31;104978;1254;73935;-64
2024/03/06 05:12:36;;;;;;;25.00;15.10;;;;;;;4.97;82.75;102064.27;104798;1258;138670;-64
2024/03/06 05:15:03;;;;;;;18.50;13.80;;;;;;;4.95;82.51;102074.17;104859;1257;73666;-65
2024/03/06 05:17:30;;;;;;;27.90;15.00;;;;;;;4.91;82.39;102073.24;108983;1254;59016;-65
2024/03/06 05:19:57;;;;;;;24.60;15.50;;;;;;;4.89;82.30;102077.95;105683;1254;138607;-63
2024/03/06 05:22:24;;;;;;;18.70;13.00;;;;;;;4.88;82.40;102083.30;104946;1258;73924;-64
2024/03/06 05:24:50;;;;;;;21.70;15.20;;;;;;;4.86;82.12;102082.79;104907;1258;138812;-65
2024/03/06 05:27:17;;;;;;;26.20;15.40;;;;;;;4.83;82.11;102085.36;104909;1257;73456;-64
2024/03/06 05:29:44;;;;;;;24.30;15.00;;;;;;;4.79;82.05;102085.76;109103;1254;58984;-65
2024/03/06 05:32:11;;;;;;;24.80;15.10;;;;;;;4.78;82.12;102082.27;108941;1254;138647;-65
2024/03/06 05:34:38;;;;;;;24.10;14.90;;;;;;;4.82;82.12;102088.79;108906;1254;75048;-64
2024/03/06 05:37:05;;;;;;;21.70;14.30;;;;;;;4.83;82.12;102083.83;105916;1256;138725;-64
2024/03/06 05:39:32;;;;;;;23.70;15.40;;;;;;;4.86;81.98;102085.40;104966;1254;72737;-64
2024/03/06 05:42:05;;;;;;;232.90;124.30;;;;;;;4.87;81.90;102084.77;104945;1254;61285;-64
2024/03/06 05:44:31;;;;;;;103.50;54.50;;;;;;;4.91;81.90;102086.74;104849;1254;138221;-60
2024/03/06 05:47:02;;;;;;;110.50;68.40;;;;;;;4.87;81.63;102086.20;109048;1254;75042;-61
2024/03/06 05:49:29;;;;;;;46.00;30.00;;;;;;;4.86;81.74;102088.77;108915;1254;138450;-61
2024/03/06 05:51:55;;;;;;;26.50;16.80;;;;;;;4.89;81.81;102089.27;109177;1254;73730;-62
2024/03/06 05:54:22;;;;;;;32.20;19.20;;;;;;;4.91;81.71;102088.38;108907;1254;138730;-62
2024/03/06 05:56:49;;;;;;;22.90;18.60;;;;;;;4.93;81.58;102092.65;108759;1254;61640;-61
2024/03/06 05:59:17;;;;;;;27.80;19.70;;;;;;;4.91;81.35;102094.08;105153;1257;75116;-61
2024/03/06 06:01:44;;;;;;;22.90;16.40;;;;;;;4.93;81.51;102097.66;109015;1254;138387;-62
2024/03/06 06:04:13;;;;;;;31.80;26.80;;;;;;;4.96;81.49;102102.12;109142;1254;73848;-62
2024/03/06 06:06:40;;;;;;;38.20;28.40;;;;;;;4.97;81.32;102106.86;106222;1256;138645;-66
2024/03/06 06:09:07;;;;;;;30.00;22.10;;;;;;;4.99;81.35;102113.41;104844;1256;61232;-65
2024/03/06 06:11:34;;;;;;;38.80;28.20;;;;;;;4.99;81.15;102114.13;104705;1254;75634;-61
2024/03/06 06:14:00;;;;;;;33.60;26.00;;;;;;;4.98;81.18;102119.65;104761;1257;138603;-66
2024/03/06 06:16:32;;;;;;;61.50;39.20;;;;;;;4.97;81.03;102126.17;104666;1254;73590;-65
2024/03/06 06:18:59;;;;;;;80.80;49.70;;;;;;;4.96;81.07;102131.33;104240;1259;137704;-65
2024/03/06 06:21:26;;;;;;;134.50;83.90;;;;;;;4.96;80.99;102127.30;104498;1258;61176;-67
2024/03/06 06:23:53;;;;;;;53.60;37.10;;;;;;;4.95;81.07;102130.77;104916;1255;75054;-68
2024/03/06 06:26:20;;;;;;;59.10;37.90;;;;;;;4.98;81.02;102130.08;104766;1254;138709;-68
2024/03/06 06:28:47;;;;;;;52.00;40.90;;;;;;;4.98;80.86;102134.80;104832;1258;73759;-68
2024/03/06 06:31:14;;;;;;;45.20;36.90;;;;;;;4.98;80.75;102140.52;104805;1255;138399;-68
2024/03/06 06:33:41;;;;;;;39.50;24.80;;;;;;;4.98;80.68;102143.44;104887;1260;61260;-68
2024/03/06 06:36:11;;;;;;;31.00;24.10;;;;;;;4.95;80.56;102147.42;105293;1254;75631;-69
2024/03/06 06:38:38;;;;;;;36.00;27.40;;;;;;;4.91;80.49;102155.50;105441;1257;66998;-69
2024/03/06 06:41:05;;;;;;;20.80;16.40;;;;;;;4.89;80.54;102158.83;105010;1256;73765;-69
2024/03/06 06:43:32;;;;;;;26.80;20.50;;;;;;;4.92;80.63;102160.23;105785;1259;139036;-69
2024/03/06 06:45:59;;;;;;;67.60;54.30;;;;;;;4.93;80.59;102162.90;105326;1259;61345;-68
2024/03/06 06:48:26;;;;;;;32.00;20.80;;;;;;;4.90;80.50;102168.13;104905;1260;138383;-69
2024/03/06 06:50:53;;;;;;;39.70;27.50;;;;;;;4.88;80.52;102170.09;104996;1256;65156;-68
2024/03/06 06:53:20;;;;;;;33.20;20.90;;;;;;;4.87;80.50;102174.55;105176;1255;73569;-68
2024/03/06 06:55:46;;;;;;;28.30;16.30;;;;;;;4.86;80.38;102177.25;104646;1254;138768;-68
2024/03/06 06:58:13;;;;;;;20.00;14.60;;;;;;;4.85;80.41;102175.93;104878;1256;61286;-69
2024/03/06 07:00:41;;;;;;;25.20;14.90;;;;;;;4.84;80.48;102175.73;105286;1256;138962;-68
2024/03/06 07:03:08;;;;;;;23.40;15.20;;;;;;;4.85;80.30;102177.71;106067;1255;67088;-68
2024/03/06 07:05:35;;;;;;;23.80;15.00;;;;;;;4.84;80.14;102181.46;104847;1255;73945;-69
2024/03/06 07:08:02;;;;;;;28.40;15.50;;;;;;;4.79;79.84;102180.59;104852;1254;138644;-69
2024/03/06 07:10:29;;;;;;;23.30;15.20;;;;;;;4.76;79.67;102183.27;105984;1259;61237;-69
2024/03/06 07:12:56;;;;;;;27.00;16.50;;;;;;;4.74;79.64;102180.73;105010;1256;137823;-68
2024/03/06 07:15:25;;;;;;;27.10;16.00;;;;;;;4.72;79.65;102178.71;104940;1256;67660;-69
2024/03/06 07:17:51;;;;;;;22.60;14.90;;;;;;;4.74;79.65;102184.72;105311;1256;72640;-68
2024/03/06 07:20:18;;;;;;;26.10;16.20;;;;;;;4.76;79.54;102182.95;104833;1255;137635;-68
2024/03/06 07:22:46;;;;;;;28.90;15.70;;;;;;;4.72;79.26;102187.73;104884;1258;61351;-69
2024/03/06 07:25:13;;;;;;;19.10;14.20;;;;;;;4.69;79.24;102190.83;104901;1258;138760;-68
2024/03/06 07:27:40;;;;;;;24.60;16.40;;;;;;;4.70;79.25;102191.92;104993;1258;67299;-68
2024/03/06 07:30:07;;;;;;;24.00;15.30;;;;;;;4.70;79.19;102194.71;105171;1260;71209;-68
2024/03/06 07:32:34;;;;;;;23.40;15.40;;;;;;;4.71;79.07;102196.89;105145;1255;139009;-68
2024/03/06 07:35:01;;;;;;;25.80;14.50;;;;;;;4.63;78.98;102184.48;104928;1254;61506;-68
2024/03/06 07:37:28;;;;;;;22.50;14.90;;;;;;;4.70;78.94;102199.40;104864;1255;137879;-69
2024/03/06 07:39:55;;;;;;;29.70;15.90;;;;;;;4.69;78.66;102202.98;104991;1258;66842;-69
2024/03/06 07:42:22;;;;;;;21.80;14.40;;;;;;;4.65;78.59;102197.83;104968;1258;138341;-67
2024/03/06 07:44:50;;;;;;;23.60;14.50;;;;;;;4.65;78.56;102198.16;104999;1256;61280;-68
2024/03/06 07:47:17;;;;;;;23.50;14.20;;;;;;;4.67;78.58;102199.52;106403;1257;61217;-68
2024/03/06 07:49:44;;;;;;;19.80;14.40;;;;;;;4.72;78.56;102207.16;104863;1256;138646;-68
2024/03/06 07:52:11;;;;;;;24.00;13.90;;;;;;;4.75;78.48;102208.13;105276;1254;65451;-68
2024/03/06 07:54:39;;;;;;;23.40;14.70;;;;;;;4.75;78.30;102213.84;104764;1255;138561;-68
2024/03/06 07:57:05;;;;;;;20.40;14.10;;;;;;;4.72;78.17;102212.07;105400;1255;61322;-69
2024/03/06 07:59:30;;;;;;;19.20;13.70;;;;;;;4.73;78.34;102218.23;105075;1260;61366;-68
2024/03/06 08:01:56;;;;;;;20.60;13.90;;;;;;;4.75;78.32;102218.23;104681;1260;138428;-68
2024/03/06 08:04:23;;;;;;;22.20;14.00;;;;;;;4.79;78.14;102222.83;104900;1256;61161;-68
2024/03/06 08:06:49;;;;;;;19.90;14.20;;;;;;;4.84;78.18;102224.74;104861;1261;138986;-68
2024/03/06 08:09:16;;;;;;;23.10;15.30;;;;;;;4.88;78.25;102222.41;105035;1256;61437;-68
2024/03/06 08:11:42;;;;;;;20.40;14.50;;;;;;;4.89;78.02;102223.88;104937;1260;61341;-69
2024/03/06 08:14:08;;;;;;;23.40;14.30;;;;;;;4.91;78.01;102228.05;104796;1259;137637;-68
2024/03/06 08:16:34;;;;;;;20.90;14.10;;;;;;;4.94;77.89;102232.10;104899;1257;139194;-69
2024/03/06 08:19:00;;;;;;;23.60;14.80;;;;;;;4.96;77.68;102236.23;104730;1256;138784;-68
2024/03/06 08:21:26;;;;;;;22.90;14.20;;;;;;;4.96;77.47;102239.20;104929;1260;61338;-68
2024/03/06 08:23:52;;;;;;;26.00;15.00;;;;;;;4.93;77.27;102237.89;104935;1255;76373;-67
2024/03/06 08:26:18;;;;;;;22.40;14.50;;;;;;;4.92;77.03;102242.04;104732;1256;138058;-68
2024/03/06 08:28:44;;;;;;;24.80;14.10;;;;;;;4.94;77.25;102242.69;105087;1256;61282;-68
2024/03/06 08:31:10;;;;;;;19.40;14.00;;;;;;;4.96;77.13;102247.21;104965;1260;138004;-68
2024/03/06 08:33:35;;;;;;;23.60;13.20;;;;;;;4.99;77.05;102249.48;104756;1260;61224;-67
2024/03/06 08:36:02;;;;;;;23.60;13.40;;;;;;;5.08;77.20;102253.23;104918;1260;61395;-67
2024/03/06 08:38:28;;;;;;;24.10;14.10;;;;;;;5.14;77.06;102256.95;104781;1256;137898;-67
2024/03/06 08:40:53;;;;;;;19.70;14.00;;;;;;;5.14;76.70;102258.39;104848;1261;61478;-67
2024/03/06 08:43:20;;;;;;;22.30;13.80;;;;;;;5.14;76.71;102260.83;104899;1261;138647;-67
2024/03/06 08:45:45;;;;;;;19.10;13.20;;;;;;;5.14;76.44;102260.48;104860;1257;61267;-67
2024/03/06 08:48:11;;;;;;;24.80;12.70;;;;;;;5.17;76.55;102261.36;105028;1254;61277;-68
2024/03/06 08:50:38;;;;;;;22.80;13.60;;;;;;;5.23;76.54;102261.30;104876;1259;61357;-68
2024/03/06 08:53:04;;;;;;;17.60;13.50;;;;;;;5.28;76.43;102264.03;104894;1261;61379;-67
2024/03/06 08:55:30;;;;;;;23.30;14.20;;;;;;;5.30;76.44;102262.42;104976;1260;138186;-68
2024/03/06 08:57:55;;;;;;;26.30;13.90;;;;;;;5.33;76.34;102269.97;104843;1260;61307;-69
2024/03/06 09:00:21;;;;;;;21.30;14.10;;;;;;;5.31;75.91;102267.92;104799;1260;138147;-68
2024/03/06 09:02:47;;;;;;;20.20;13.90;;;;;;;5.31;75.93;102270.20;105090;1256;61372;-68
2024/03/06 09:05:13;;;;;;;21.20;13.90;;;;;;;5.32;75.89;102267.86;104913;1256;62311;-68
2024/03/06 09:07:40;;;;;;;26.00;13.60;;;;;;;5.36;76.08;102272.08;104750;1260;138291;-68
2024/03/06 09:10:10;;;;;;;20.10;13.20;;;;;;;5.42;76.28;102272.34;104969;1261;68165;-68
2024/03/06 09:12:36;;;;;;;21.70;12.90;;;;;;;5.42;76.22;102272.55;104641;1256;138641;-68
2024/03/06 09:15:03;;;;;;;22.60;12.70;;;;;;;5.43;76.20;102275.20;104797;1259;61285;-68
2024/03/06 09:17:29;;;;;;;22.60;12.70;;;;;;;5.42;76.24;102273.09;104837;1256;61354;-68
2024/03/06 09:19:55;;;;;;;20.70;13.40;;;;;;;5.47;76.27;102274.77;106499;1256;138408;-68
2024/03/06 09:22:21;;;;;;;23.10;13.20;;;;;;;5.47;75.99;102276.52;104991;1261;61388;-68
2024/03/06 09:24:48;;;;;;;19.10;13.10;;;;;;;5.46;75.93;102277.84;104823;1258;138321;-68
2024/03/06 09:27:14;;;;;;;18.40;12.30;;;;;;;5.44;75.96;102277.40;104993;1258;61392;-68
2024/03/06 09:29:41;;;;;;;19.80;13.50;;;;;;;5.42;75.77;102279.66;105179;1256;61289;-68
2024/03/06 09:32:06;;;;;;;23.70;13.20;;;;;;;5.42;75.96;102279.84;104779;1256;137755;-69
2024/03/06 09:34:32;;;;;;;22.80;13.10;;;;;;;5.44;76.05;102282.45;104979;1254;61373;-68
2024/03/06 09:36:58;;;;;;;20.80;13.30;;;;;;;5.47;76.07;102282.98;104888;1256;138571;-68
2024/03/06 09:39:23;;;;;;;16.20;12.20;;;;;;;5.50;75.84;102283.91;105055;1255;61264;-69
2024/03/06 09:41:50;;;;;;;19.20;13.10;;;;;;;5.50;75.76;102287.17;104965;1256;75734;-69
2024/03/06 09:44:16;;;;;;;27.90;12.70;;;;;;;5.53;75.66;102290.66;104779;1256;138340;-69
2024/03/06 09:46:44;;;;;;;20.10;12.80;;;;;;;5.53;75.55;102289.53;104784;1262;61358;-68
2024/03/06 09:49:15;;;;;;;24.20;14.00;;;;;;;5.56;75.52;102284.11;105668;1256;137780;-68
2024/03/06 09:51:49;;;;;;;22.60;13.10;;;;;;;5.57;75.53;102290.29;104935;1256;61292;-68
2024/03/06 09:54:16;;;;;;;18.90;12.70;;;;;;;5.59;75.25;102291.50;104908;1255;137833;-68
2024/03/06 09:56:47;;;;;;;19.40;13.00;;;;;;;5.59;75.17;102288.20;105347;1260;61243;-68
2024/03/06 09:59:14;;;;;;;24.70;13.30;;;;;;;5.60;75.27;102284.04;104831;1264;73961;-69
2024/03/06 10:01:52;;;;;;;22.70;13.60;;;;;;;5.60;75.20;102291.05;104833;1256;138516;-69
2024/03/06 10:04:22;;;;;;;20.90;11.50;;;;;;;5.58;74.98;102295.80;105062;1256;62247;-69
2024/03/06 10:06:48;;;;;;;17.30;11.60;;;;;;;5.53;74.78;102294.40;105019;1256;139175;-69
2024/03/06 10:09:16;;;;;;;24.00;12.30;;;;;;;5.54;74.93;102299.50;104785;1261;59808;-69
2024/03/06 10:11:42;;;;;;;18.90;12.70;;;;;;;5.57;74.89;102300.41;104954;1256;73699;-69
2024/03/06 10:14:10;;;;;;;17.40;11.50;;;;;;;5.58;74.96;102299.08;104938;1260;137719;-69
2024/03/06 10:16:36;;;;;;;18.60;12.10;;;;;;;5.58;74.90;102303.75;105578;1259;61787;-69
2024/03/06 10:19:31;;;;;;;21.40;12.60;;;;;;;5.58;74.82;102301.66;104949;1256;137613;-68
2024/03/06 10:21:57;;;;;;;24.10;13.10;;;;;;;5.58;74.85;102306.57;104822;1254;66599;-70
2024/03/06 10:24:24;;;;;;;18.30;12.60;;;;;;;5.58;74.69;102312.84;104916;1256;138477;-68
2024/03/06 10:26:51;;;;;;;19.20;12.10;;;;;;;5.55;74.33;102313.85;104789;1264;61341;-67
2024/03/06 10:29:18;;;;;;;18.80;11.80;;;;;;;5.55;74.54;102314.90;105652;1256;61436;-67
2024/03/06 10:31:57;;;;;;;17.50;12.10;;;;;;;5.59;74.62;102318.30;104913;1260;138725;-68
2024/03/06 10:34:25;;;;;;;19.20;11.90;;;;;;;5.60;74.33;102316.13;105008;1260;67166;-67
2024/03/06 10:36:54;;;;;;;22.80;12.30;;;;;;;5.60;74.35;102314.02;105171;1256;137930;-68
2024/03/06 10:39:20;;;;;;;17.90;11.60;;;;;;;5.63;74.22;102319.45;105402;1261;60217;-68
2024/03/06 10:41:46;;;;;;;25.50;12.90;;;;;;;5.64;73.96;102323.40;104879;1255;61371;-68
2024/03/06 10:44:15;;;;;;;17.70;12.00;;;;;;;5.62;73.89;102331.73;104739;1255;137858;-68
2024/03/06 10:46:47;;;;;;;21.70;12.10;;;;;;;5.59;73.70;102330.19;105053;1262;68159;-68
2024/03/06 10:49:13;;;;;;;18.00;11.20;;;;;;;5.56;73.38;102333.41;104697;1261;138336;-68
2024/03/06 10:51:43;;;;;;;19.80;12.50;;;;;;;5.53;73.39;102325.38;104740;1264;61446;-68
2024/03/06 10:54:10;;;;;;;19.70;11.20;;;;;;;5.55;73.26;102329.34;105313;1261;62294;-69
2024/03/06 10:56:38;;;;;;;18.60;12.40;;;;;;;5.55;73.39;102333.34;105300;1256;138612;-69
2024/03/06 10:59:05;;;;;;;14.90;11.00;;;;;;;5.57;73.43;102335.39;105003;1258;68168;-68
2024/03/06 11:01:32;;;;;;;18.80;11.80;;;;;;;5.60;73.50;102331.62;104852;1260;138694;-68
2024/03/06 11:04:01;;;;;;;19.50;12.80;;;;;;;5.61;73.33;102342.98;104913;1256;61737;-68
2024/03/06 11:06:27;;;;;;;18.90;12.00;;;;;;;5.58;73.04;102333.02;104692;1261;138359;-68